1221-й км

Карта отелей и гостиниц, располагающихся рядом с аэропортом 1221-й км :

1221-й км Свердловская область 60° 49' 13.7712" N, 60° 34' 34.0788" E
1221-й км Свердловская область 60° 49' 13.7712" N, 60° 34' 34.0788" E
Код аэродрома ИКАО
HDV0
Код аэродрома RU
ХДЖ0
Координаты
N60.82049° E060.57613°
Превышение над уровнем моря
76
Основная полоса
34/16
Курс магнитный
342,9/162,9
Длина основной ВПП
20
Ширина основной ВПП
20
Покрытие основной ВПП
Твёрдое
Освещение ВПП
Нет
Тип: 
Вертодром
Класс аэродрома: 
Принадлежность: 
ГА
Статус: 
Действующий
Сайт: 
E-mail аэродрома: 
Страна: 
Россия
Регион: 
Свердловская область
Город: 
Дополнительная информация: 
Владелец ПП: нет данных.


Найти трансфер

С помощью этой формы Вы можете найти трансфер из аэропорта 1221-й км в город, аэропорт или вокзал:

Погода в аэропортах:

Авиационная погода в аэропорту Бесовец

Регион: 
Погода METAR: 
ULPB 291030Z VRB01MPS 9999 -RA SCT016 OVC043 14/12 Q1003 R19/09//60 NOSIG RMK QFE748/0998
Время наблюдения
2022-05-29T10:30:00Z
Температура C
14.0
Точка росы
12.0
Направление ветра
0
Скорость ветра (узлы)
2
Метео видимость
6.21
Облачность
SCT
OVC
Нижняя граница облачности (футы)
1600
4300
Явления погоды
-RA
Условия полета
VFR
Аэропорт подробнее: 
SCT – разбросанная отдельная облачность; OVC – сплошная облачность;
-RA - слабый дождь;

Авиационная погода в Богашево

Регион: 
Погода METAR: 
UNTT 291030Z 22002MPS 9999 -RA OVC048 16/11 Q1010 R21/190055 NOSIG RMK QFE742
Время наблюдения
2022-05-29T10:30:00Z
Температура C
16.0
Точка росы
11.0
Направление ветра
220
Скорость ветра (узлы)
4
Метео видимость
6.21
Облачность
OVC
Нижняя граница облачности (футы)
4800
Явления погоды
-RA
Условия полета
VFR
Аэропорт подробнее: 
OVC – сплошная облачность;
-RA - слабый дождь;

Авиационная погода в Игнатьево

Регион: 
Погода METAR: 
UHBB 291030Z 09002MPS 9000 -SHRA BKN026CB 12/12 Q0996 R36/290250 NOSIG RMK QFE730/0973
Время наблюдения
2022-05-29T10:30:00Z
Температура C
12.0
Точка росы
12.0
Направление ветра
90
Скорость ветра (узлы)
4
Метео видимость
5.59
Облачность
BKN
Нижняя граница облачности (футы)
2600
Явления погоды
-SHRA
Условия полета
MVFR
Аэропорт подробнее: 
BKN – значительная (рассеянная, разорванная) облачность;
-SHRA - слабый ливневой дождь;

Авиационная погода в аэропорту Имени Алексея Леонова

Регион: 
Погода METAR: 
UNEE 291030Z 29002MPS 7000 -RA BKN049 14/12 Q1011 R23/290155 NOSIG RMK QFE735
Время наблюдения
2022-05-29T10:30:00Z
Температура C
14.0
Точка росы
12.0
Направление ветра
290
Скорость ветра (узлы)
4
Метео видимость
4.35
Облачность
BKN
Нижняя граница облачности (футы)
4900
Явления погоды
-RA
Условия полета
MVFR
Аэропорт подробнее: 
BKN – значительная (рассеянная, разорванная) облачность;
-RA - слабый дождь;